createdAt,value
2022-10-13T00:00:43.441Z,18.7
2022-10-13T00:02:00.546Z,20.1
2022-10-13T00:03:17.649Z,18.5
2022-10-13T00:04:34.754Z,17.9
2022-10-13T00:05:51.859Z,19
2022-10-13T00:07:08.963Z,18.3
2022-10-13T00:08:26.068Z,19
2022-10-13T00:09:43.173Z,19.1
2022-10-13T00:10:59.294Z,18.1
2022-10-13T00:12:16.399Z,21.4
2022-10-13T00:13:33.504Z,19.6
2022-10-13T00:14:50.609Z,19.9
2022-10-13T00:16:07.714Z,20.1
2022-10-13T00:17:24.819Z,19.2
2022-10-13T00:18:41.924Z,20.9
2022-10-13T00:19:59.028Z,19.6
2022-10-13T00:21:16.133Z,18.9
2022-10-13T00:22:33.238Z,20.3
2022-10-13T00:23:50.343Z,19.7
2022-10-13T00:25:07.447Z,18.7
2022-10-13T00:26:24.553Z,18.1
2022-10-13T00:27:40.674Z,19
2022-10-13T00:28:57.778Z,19.4
2022-10-13T00:30:14.883Z,19.7
2022-10-13T00:31:31.988Z,18.9
2022-10-13T00:32:49.092Z,19.3
2022-10-13T00:34:06.197Z,19.7
2022-10-13T00:35:23.301Z,21
2022-10-13T00:36:40.406Z,19.5
2022-10-13T00:37:57.511Z,21.9
2022-10-13T00:39:14.615Z,22
2022-10-13T00:40:31.720Z,22
2022-10-13T00:41:48.824Z,21.6
2022-10-13T00:43:05.929Z,21.9
2022-10-13T00:44:22.049Z,21.5
2022-10-13T00:45:39.154Z,18.6
2022-10-13T00:46:56.258Z,22.1
2022-10-13T00:48:13.363Z,21.5
2022-10-13T00:49:30.468Z,20.8
2022-10-13T00:50:47.572Z,23.6
2022-10-13T00:52:04.677Z,22.7
2022-10-13T00:53:21.781Z,20.2
2022-10-13T00:54:38.886Z,20.7
2022-10-13T00:55:55.990Z,21.2
2022-10-13T00:57:13.095Z,21.5
2022-10-13T00:58:30.199Z,21.3
2022-10-13T00:59:47.304Z,23.2
2022-10-13T01:01:03.425Z,22.8
2022-10-13T01:02:20.529Z,24.6
2022-10-13T01:03:37.635Z,21
2022-10-13T01:04:54.739Z,23.4
2022-10-13T01:06:11.844Z,21.7
2022-10-13T01:07:28.948Z,23.3
2022-10-13T01:08:46.053Z,22.7
2022-10-13T01:10:03.157Z,22.5
2022-10-13T01:11:20.262Z,22.1
2022-10-13T01:12:37.367Z,20.9
2022-10-13T01:13:54.471Z,23.1
2022-10-13T01:15:11.576Z,21.5
2022-10-13T01:16:28.680Z,23.6
2022-10-13T01:17:44.801Z,25.4
2022-10-13T01:19:01.905Z,23.7
2022-10-13T01:20:19.010Z,24.3
2022-10-13T01:21:36.115Z,24
2022-10-13T01:22:53.219Z,22.6
2022-10-13T01:24:10.324Z,22
2022-10-13T01:25:27.428Z,22.6
2022-10-13T01:26:44.533Z,22.4
2022-10-13T01:28:01.637Z,21.6
2022-10-13T01:29:18.743Z,21.5
2022-10-13T01:30:35.847Z,21.6
2022-10-13T01:31:52.952Z,23.4
2022-10-13T01:33:10.057Z,24.4
2022-10-13T01:34:26.178Z,21.5
2022-10-13T01:35:43.282Z,20.3
2022-10-13T01:37:00.387Z,19.8
2022-10-13T01:38:17.491Z,19.4
2022-10-13T01:39:34.596Z,20
2022-10-13T01:40:51.700Z,19.2
2022-10-13T01:42:08.805Z,20.1
2022-10-13T01:43:25.909Z,19
2022-10-13T01:44:43.014Z,20.4
2022-10-13T01:46:00.119Z,20.1
2022-10-13T01:47:17.223Z,20
2022-10-13T01:48:34.328Z,19.3
2022-10-13T01:49:51.432Z,18.4
2022-10-13T01:51:07.553Z,18.9
2022-10-13T01:52:24.657Z,19.3
2022-10-13T01:53:41.762Z,19.2
2022-10-13T01:54:58.866Z,20.1
2022-10-13T01:56:15.971Z,19.3
2022-10-13T01:57:33.076Z,20
2022-10-13T01:58:50.180Z,20.6
2022-10-13T02:00:07.285Z,21.2
2022-10-13T02:01:24.389Z,20.7
2022-10-13T02:02:41.494Z,21
2022-10-13T02:03:58.598Z,19.5
2022-10-13T02:05:15.703Z,19.4
2022-10-13T02:06:32.809Z,19.3
2022-10-13T02:07:48.929Z,18.5
2022-10-13T02:09:06.034Z,19.9
2022-10-13T02:10:23.138Z,20.2
2022-10-13T02:11:40.243Z,20.7
2022-10-13T02:12:57.347Z,20.9
2022-10-13T02:14:14.451Z,22.5
2022-10-13T02:15:31.556Z,19.5
2022-10-13T02:16:48.660Z,21.4
2022-10-13T02:18:05.765Z,21.3
2022-10-13T02:19:22.870Z,20.4
2022-10-13T02:20:39.974Z,21.8
2022-10-13T02:21:57.079Z,21.2
2022-10-13T02:23:14.183Z,20.4
2022-10-13T02:24:30.304Z,21.2
2022-10-13T02:25:47.408Z,20.5
2022-10-13T02:27:04.513Z,20.3
2022-10-13T02:28:21.617Z,19.8
2022-10-13T02:29:38.722Z,19.7
2022-10-13T02:30:55.826Z,19.1
2022-10-13T02:32:12.931Z,23.2
2022-10-13T02:33:30.035Z,19.9
2022-10-13T02:34:47.139Z,21.4
2022-10-13T02:36:04.244Z,22.7
2022-10-13T02:37:21.349Z,20
2022-10-13T02:38:38.453Z,20.8
2022-10-13T02:39:55.558Z,21.4
2022-10-13T02:41:11.679Z,20.1
2022-10-13T02:42:28.783Z,20.2
2022-10-13T02:43:45.888Z,19.9
2022-10-13T02:45:02.992Z,20.5
2022-10-13T02:46:20.097Z,20.5
2022-10-13T02:47:37.201Z,20.4
2022-10-13T02:48:54.305Z,21.9
2022-10-13T02:50:11.410Z,18.4
2022-10-13T02:51:28.515Z,19.1
2022-10-13T02:52:45.619Z,18.4
2022-10-13T02:54:02.724Z,18.9
2022-10-13T02:55:19.828Z,20.3
2022-10-13T02:56:36.933Z,19
2022-10-13T02:57:53.053Z,18.4
2022-10-13T02:59:10.158Z,18
2022-10-13T03:00:27.262Z,18.6
2022-10-13T03:01:44.367Z,18.1
2022-10-13T03:03:01.472Z,17.7
2022-10-13T03:04:17.592Z,20.4
2022-10-13T03:05:34.697Z,19
2022-10-13T03:06:51.801Z,18.9
2022-10-13T03:08:08.906Z,20.4
2022-10-13T03:09:26.010Z,19.3
2022-10-13T03:10:43.113Z,19
2022-10-13T03:12:00.217Z,18.8
2022-10-13T03:13:17.322Z,19.1
2022-10-13T03:14:34.426Z,19.6
2022-10-13T03:15:51.531Z,19.8
2022-10-13T03:17:08.637Z,19.6
2022-10-13T03:18:25.741Z,19.5
2022-10-13T03:19:42.845Z,20.4
2022-10-13T03:20:58.966Z,20.4
2022-10-13T03:22:16.071Z,21.2
2022-10-13T03:23:33.175Z,21.2
2022-10-13T03:24:50.279Z,20
2022-10-13T03:26:07.384Z,20.5
2022-10-13T03:27:24.489Z,20.2
2022-10-13T03:28:41.593Z,19.5
2022-10-13T03:29:58.698Z,19.8
2022-10-13T03:31:15.802Z,19.9
2022-10-13T03:32:32.907Z,20.5
2022-10-13T03:33:50.011Z,20.4
2022-10-13T03:35:07.116Z,20.3
2022-10-13T03:36:24.220Z,19.8
2022-10-13T03:37:40.341Z,20.1
2022-10-13T03:38:57.446Z,20.8
2022-10-13T03:40:14.550Z,20.5
2022-10-13T03:41:31.655Z,20.8
2022-10-13T03:42:48.759Z,20.3
2022-10-13T03:44:05.864Z,19.6
2022-10-13T03:45:22.968Z,21.5
2022-10-13T03:46:40.073Z,21.3
2022-10-13T03:47:57.178Z,20.3
2022-10-13T03:49:14.282Z,21.3
2022-10-13T03:50:31.387Z,22.1
2022-10-13T03:51:48.491Z,21.2
2022-10-13T03:53:05.596Z,20.4
2022-10-13T03:54:21.716Z,23.2
2022-10-13T03:55:38.821Z,23.3
2022-10-13T03:56:55.925Z,21.2
2022-10-13T03:58:13.030Z,20
2022-10-13T03:59:30.134Z,19.2
2022-10-13T04:00:47.239Z,19.6
2022-10-13T04:02:04.343Z,20.1
2022-10-13T04:03:21.448Z,20.2
2022-10-13T04:04:38.552Z,21.4
2022-10-13T04:05:55.656Z,20.1
2022-10-13T04:07:12.761Z,21.6
2022-10-13T04:08:29.865Z,22.3
2022-10-13T04:09:46.970Z,23.9
2022-10-13T04:11:03.091Z,23.3
2022-10-13T04:12:20.195Z,25.2
2022-10-13T04:13:37.300Z,24
2022-10-13T04:14:54.405Z,24
2022-10-13T04:16:11.509Z,25.7
2022-10-13T04:17:28.614Z,25.4
2022-10-13T04:18:45.718Z,24
2022-10-13T04:20:02.823Z,24
2022-10-13T04:21:19.927Z,27.2
2022-10-13T04:22:37.032Z,25
2022-10-13T04:23:54.136Z,22
2022-10-13T04:25:11.241Z,22.4
2022-10-13T04:26:28.345Z,21.3
2022-10-13T04:27:44.466Z,21.7
2022-10-13T04:29:01.571Z,21.5
2022-10-13T04:30:18.676Z,22
2022-10-13T04:31:35.781Z,22.6
2022-10-13T04:32:52.886Z,22.8
2022-10-13T04:34:09.990Z,21.7
2022-10-13T04:35:27.095Z,20.3
2022-10-13T04:36:44.199Z,21.3
2022-10-13T04:38:01.303Z,22.3
2022-10-13T04:39:18.408Z,21.4
2022-10-13T04:40:35.513Z,20.1
2022-10-13T04:41:52.617Z,19.1
2022-10-13T04:43:09.722Z,18.8
2022-10-13T04:44:25.843Z,18.7
2022-10-13T04:45:42.947Z,19.5
2022-10-13T04:47:00.051Z,18.6
2022-10-13T04:48:17.156Z,18.6
2022-10-13T04:49:34.260Z,19
2022-10-13T04:50:51.365Z,20.1
2022-10-13T04:52:08.469Z,19.6
2022-10-13T04:53:25.573Z,21.2
2022-10-13T04:54:42.678Z,20.2
2022-10-13T04:55:59.783Z,20.6
2022-10-13T04:57:16.887Z,19.3
2022-10-13T04:58:33.993Z,19.2
2022-10-13T04:59:51.097Z,19.3
2022-10-13T05:01:07.218Z,20.2
2022-10-13T05:02:24.322Z,19.4
2022-10-13T05:03:41.427Z,19.8
2022-10-13T05:04:58.531Z,19.9
2022-10-13T05:06:15.636Z,19.6
2022-10-13T05:07:32.741Z,19.3
2022-10-13T05:08:49.845Z,19.2
2022-10-13T05:10:06.949Z,20.3
2022-10-13T05:11:24.054Z,20
2022-10-13T05:12:41.158Z,19.8
2022-10-13T05:13:58.263Z,19.7
2022-10-13T05:15:15.367Z,19.5
2022-10-13T05:16:32.472Z,19.1
2022-10-13T05:17:48.593Z,19.5
2022-10-13T05:19:05.697Z,19.4
2022-10-13T05:20:22.802Z,20
2022-10-13T05:21:39.906Z,20.1
2022-10-13T05:22:57.011Z,20.8
2022-10-13T05:24:14.115Z,20.8
2022-10-13T05:25:31.220Z,20.5
2022-10-13T05:26:48.324Z,20.5
2022-10-13T05:28:05.429Z,20.3
2022-10-13T05:29:22.534Z,19
2022-10-13T05:30:39.638Z,19.3
2022-10-13T05:31:56.742Z,18.9
2022-10-13T05:33:13.847Z,19.8
2022-10-13T05:34:29.967Z,20.3
2022-10-13T05:35:47.072Z,19.9
2022-10-13T05:37:04.176Z,20.6
2022-10-13T05:38:21.281Z,20.2
2022-10-13T05:39:38.386Z,21
2022-10-13T05:40:55.491Z,21.2
2022-10-13T05:42:12.595Z,20.6
2022-10-13T05:43:29.700Z,21.3
2022-10-13T05:44:46.804Z,21.2
2022-10-13T05:46:03.910Z,20.1
2022-10-13T05:47:21.014Z,19.8
2022-10-13T05:48:38.119Z,19.7
2022-10-13T05:49:55.223Z,19.8
2022-10-13T05:51:11.344Z,20.1
2022-10-13T05:52:28.448Z,19.7
2022-10-13T05:53:45.553Z,20.6
2022-10-13T05:55:02.657Z,20.5
2022-10-13T05:56:19.761Z,19.9
2022-10-13T05:57:36.866Z,20.4
2022-10-13T05:58:53.970Z,19.2
2022-10-13T06:00:11.075Z,18.9
2022-10-13T06:01:28.179Z,19
2022-10-13T06:02:45.284Z,19.5
2022-10-13T06:04:02.388Z,19.3
2022-10-13T06:05:19.493Z,19.9
2022-10-13T06:06:36.597Z,20.6
2022-10-13T06:07:52.717Z,20.2
2022-10-13T06:09:09.822Z,20.3
2022-10-13T06:10:26.926Z,19.6
2022-10-13T06:11:44.031Z,19.2
2022-10-13T06:13:01.135Z,19.9
2022-10-13T06:14:18.240Z,20.3
2022-10-13T06:15:35.344Z,20.5
2022-10-13T06:16:52.448Z,20
2022-10-13T06:18:09.553Z,19.2
2022-10-13T06:19:26.657Z,20.3
2022-10-13T06:20:43.762Z,18.4
2022-10-13T06:22:00.866Z,18.7
2022-10-13T06:23:17.971Z,17.9
2022-10-13T06:24:34.091Z,18.5
2022-10-13T06:25:51.196Z,20
2022-10-13T06:27:08.300Z,19.1
2022-10-13T06:28:25.404Z,18.9
2022-10-13T06:29:42.509Z,19.1
2022-10-13T06:30:59.613Z,19.4
2022-10-13T06:32:16.718Z,19.4
2022-10-13T06:33:33.822Z,18.5
2022-10-13T06:34:50.927Z,20.3
2022-10-13T06:36:08.031Z,20.5
2022-10-13T06:37:25.136Z,20.1
2022-10-13T06:38:42.240Z,20
2022-10-13T06:39:59.345Z,21.5
2022-10-13T06:41:15.466Z,19.9
2022-10-13T06:42:32.570Z,19.9
2022-10-13T06:43:49.674Z,19
2022-10-13T06:45:06.780Z,19.3
2022-10-13T06:46:23.885Z,18.9
2022-10-13T06:47:40.989Z,19.3
2022-10-13T06:48:58.093Z,19.3
2022-10-13T06:50:15.198Z,19.7
2022-10-13T06:51:32.302Z,18.9
2022-10-13T06:52:49.407Z,18.5
2022-10-13T06:54:06.511Z,17.8
2022-10-13T06:55:23.616Z,19.2
2022-10-13T06:56:40.721Z,19.3
2022-10-13T06:57:56.841Z,19.2
2022-10-13T06:59:13.946Z,19.4
2022-10-13T07:00:31.050Z,18.8
2022-10-13T07:01:48.155Z,19.2
2022-10-13T07:03:05.259Z,18.2
2022-10-13T07:04:22.364Z,19
2022-10-13T07:05:39.468Z,18.6
2022-10-13T07:06:56.573Z,19.4
2022-10-13T07:08:13.677Z,19
2022-10-13T07:09:30.782Z,18.6
2022-10-13T07:10:47.886Z,18.5
2022-10-13T07:12:04.991Z,18.6
2022-10-13T07:13:22.095Z,18.9
2022-10-13T07:14:38.216Z,19.2
2022-10-13T07:15:55.320Z,19.8
2022-10-13T07:17:12.425Z,19.4
2022-10-13T07:18:29.529Z,19.8
2022-10-13T07:19:46.634Z,19.6
2022-10-13T07:21:03.738Z,20.5
2022-10-13T07:22:19.859Z,20.2
2022-10-13T07:23:36.963Z,19.7
2022-10-13T07:24:54.068Z,20.4
2022-10-13T07:26:11.172Z,19.2
2022-10-13T07:27:28.276Z,19.6
2022-10-13T07:28:45.381Z,19.7
2022-10-13T07:30:02.485Z,19.7
2022-10-13T07:31:19.590Z,19.2
2022-10-13T07:32:36.694Z,19.5
2022-10-13T07:33:53.799Z,19.9
2022-10-13T07:35:10.903Z,19.2
2022-10-13T07:36:28.007Z,19.8
2022-10-13T07:37:45.112Z,19.2
2022-10-13T07:39:01.232Z,19
2022-10-13T07:40:18.337Z,19.2
2022-10-13T07:41:35.441Z,19
2022-10-13T07:42:52.546Z,19.6
2022-10-13T07:44:09.650Z,19.4
2022-10-13T07:45:26.754Z,19.6
2022-10-13T07:46:43.859Z,19.1
2022-10-13T07:48:00.963Z,19.4
2022-10-13T07:49:18.067Z,20.4
2022-10-13T07:50:35.172Z,19.3
2022-10-13T07:51:52.276Z,20.1
2022-10-13T07:53:09.381Z,19.6
2022-10-13T07:54:26.485Z,18.9
2022-10-13T07:55:42.605Z,19.7
2022-10-13T07:56:59.710Z,18.2
2022-10-13T07:58:16.814Z,19.4
2022-10-13T07:59:33.918Z,19.7
2022-10-13T08:00:51.023Z,18
2022-10-13T08:02:08.127Z,19.2
2022-10-13T08:03:25.231Z,19.5
2022-10-13T08:04:42.336Z,18.9
2022-10-13T08:05:59.440Z,20
2022-10-13T08:07:16.545Z,19.1
2022-10-13T08:08:33.649Z,19.1
2022-10-13T08:09:50.754Z,18.9
2022-10-13T08:11:07.858Z,20.3
2022-10-13T08:12:23.979Z,19.7
2022-10-13T08:13:41.083Z,19.9
2022-10-13T08:14:58.187Z,20
2022-10-13T08:16:15.292Z,19.1
2022-10-13T08:17:32.396Z,18.7
2022-10-13T08:18:49.501Z,19.9
2022-10-13T08:20:06.605Z,19.2
2022-10-13T08:21:23.709Z,18.4
2022-10-13T08:22:40.813Z,18.4
2022-10-13T08:23:57.918Z,19.4
2022-10-13T08:25:15.022Z,19.2
2022-10-13T08:26:32.127Z,18.8
2022-10-13T08:27:49.231Z,18.2
2022-10-13T08:29:05.351Z,18.2
2022-10-13T08:30:22.455Z,18.9
2022-10-13T08:31:39.559Z,17.8
2022-10-13T08:32:56.663Z,18.4
2022-10-13T08:34:13.767Z,18.8
2022-10-13T08:35:30.871Z,18.3
2022-10-13T08:36:47.975Z,18.5
2022-10-13T08:38:05.080Z,17.5
2022-10-13T08:39:22.184Z,17.9
2022-10-13T08:40:39.288Z,17.8
2022-10-13T08:41:56.392Z,17.7
2022-10-13T08:43:13.497Z,18.3
2022-10-13T08:44:30.601Z,17.2
2022-10-13T08:45:46.721Z,17.2
2022-10-13T08:47:03.825Z,18.9
2022-10-13T08:48:20.930Z,18
2022-10-13T08:49:38.034Z,18
2022-10-13T08:50:55.138Z,18.1
2022-10-13T08:52:12.243Z,18.2
2022-10-13T08:53:29.347Z,17.7
2022-10-13T08:54:46.451Z,17.7
2022-10-13T08:56:03.555Z,17.8
2022-10-13T08:57:20.660Z,18.1
2022-10-13T08:58:37.764Z,17.9
2022-10-13T08:59:54.869Z,18.1
2022-10-13T09:01:11.973Z,17.7
2022-10-13T09:02:28.094Z,17.8
2022-10-13T09:03:45.198Z,18.1
2022-10-13T09:05:02.303Z,17.6
2022-10-13T09:06:19.407Z,18.6
2022-10-13T09:07:36.511Z,18.3
2022-10-13T09:08:53.616Z,18.2
2022-10-13T09:10:10.720Z,18.4
2022-10-13T09:11:27.825Z,18.1
2022-10-13T09:12:44.929Z,18.8
2022-10-13T09:14:02.033Z,18.8
2022-10-13T09:15:19.137Z,18.6
2022-10-13T09:16:36.241Z,18.6
2022-10-13T09:17:53.345Z,19.4
2022-10-13T09:19:09.466Z,19.3
2022-10-13T09:20:26.569Z,19.1
2022-10-13T09:21:43.673Z,18.7
2022-10-13T09:23:00.778Z,18.5
2022-10-13T09:24:17.881Z,19
2022-10-13T09:25:34.985Z,19.1
2022-10-13T09:26:52.089Z,18.7
2022-10-13T09:28:09.193Z,18.2
2022-10-13T09:29:26.296Z,18.8
2022-10-13T09:30:43.400Z,19.3
2022-10-13T09:32:00.504Z,19
2022-10-13T09:33:17.608Z,18.9
2022-10-13T09:34:34.712Z,19.3
2022-10-13T09:35:50.832Z,18.6
2022-10-13T09:37:07.936Z,18.1
2022-10-13T09:38:25.040Z,19.5
2022-10-13T09:39:42.144Z,18.4
2022-10-13T09:40:59.248Z,17.8
2022-10-13T09:42:16.352Z,18
2022-10-13T09:43:33.456Z,18.6
2022-10-13T09:44:50.560Z,18
2022-10-13T09:46:07.664Z,18.5
2022-10-13T09:47:24.768Z,18.3
2022-10-13T09:48:41.872Z,18.2
2022-10-13T09:49:58.976Z,17.8
2022-10-13T09:51:16.080Z,18.4
2022-10-13T09:52:32.200Z,18.4
2022-10-13T09:53:49.304Z,17.5
2022-10-13T09:55:06.408Z,18
2022-10-13T09:56:23.513Z,17.4
2022-10-13T09:57:40.617Z,17.7
2022-10-13T09:58:57.721Z,16.9
2022-10-13T10:00:14.825Z,17.6
2022-10-13T10:01:31.929Z,17.2
2022-10-13T10:02:49.033Z,17.5
2022-10-13T10:04:06.138Z,17
2022-10-13T10:05:23.242Z,17.4
2022-10-13T10:06:40.346Z,17.2
2022-10-13T10:07:57.451Z,16.9
2022-10-13T10:09:13.571Z,17.1
2022-10-13T10:10:30.675Z,16.9
2022-10-13T10:11:47.779Z,17.3
2022-10-13T10:13:04.883Z,16.7
2022-10-13T10:14:21.986Z,17
2022-10-13T10:15:39.090Z,17.7
2022-10-13T10:16:56.194Z,17.2
2022-10-13T10:18:13.299Z,16.9
2022-10-13T10:19:30.404Z,16.2
2022-10-13T10:20:47.508Z,16.3
2022-10-13T10:22:04.612Z,16.4
2022-10-13T10:23:21.716Z,16.3
2022-10-13T10:24:38.820Z,16.9
2022-10-13T10:25:54.940Z,16
2022-10-13T10:27:12.044Z,16.8
2022-10-13T10:28:29.148Z,16.5
2022-10-13T10:29:46.253Z,15.9
2022-10-13T10:31:03.357Z,16.2
2022-10-13T10:32:20.461Z,16.2
2022-10-13T10:33:37.565Z,16.5
2022-10-13T10:34:54.669Z,16
2022-10-13T10:36:11.773Z,16.9
2022-10-13T10:37:28.878Z,16.4
2022-10-13T10:38:45.982Z,15
2022-10-13T10:40:03.086Z,18.1
2022-10-13T10:41:20.190Z,17.1
2022-10-13T10:42:36.311Z,15.1
2022-10-13T10:43:53.415Z,17.8
2022-10-13T10:45:10.519Z,17.2
2022-10-13T10:46:27.623Z,16.3
2022-10-13T10:47:44.727Z,17.5
2022-10-13T10:49:01.831Z,15.7
2022-10-13T10:50:18.935Z,15.7
2022-10-13T10:51:36.040Z,16.5
2022-10-13T10:52:53.144Z,16.3
2022-10-13T10:54:10.248Z,17.2
2022-10-13T10:55:27.352Z,16.3
2022-10-13T10:56:44.456Z,15.4
2022-10-13T10:58:01.560Z,15.7
2022-10-13T10:59:17.681Z,18.7
2022-10-13T11:00:34.785Z,15.4
2022-10-13T11:01:51.889Z,15.4
2022-10-13T11:03:08.993Z,16.9
2022-10-13T11:04:26.098Z,15
2022-10-13T11:05:43.200Z,14.5
2022-10-13T11:07:00.304Z,17.9
2022-10-13T11:08:17.408Z,17.8
2022-10-13T11:09:34.512Z,14.5
2022-10-13T11:10:51.616Z,15.3
2022-10-13T11:12:08.721Z,14.7
2022-10-13T11:13:25.825Z,15
2022-10-13T11:14:42.929Z,15.6
2022-10-13T11:15:59.050Z,14.5
2022-10-13T11:17:16.154Z,13.3
2022-10-13T11:18:33.258Z,16.5
2022-10-13T11:19:50.362Z,16.1
2022-10-13T11:21:07.466Z,14.7
2022-10-13T11:22:24.571Z,14
2022-10-13T11:23:41.675Z,15.1
2022-10-13T11:24:58.779Z,14.9
2022-10-13T11:26:15.884Z,14.4
2022-10-13T11:27:32.988Z,14.2
2022-10-13T11:28:50.092Z,14.2
2022-10-13T11:30:07.196Z,13.6
2022-10-13T11:31:24.300Z,14.4
2022-10-13T11:32:40.421Z,14.5
2022-10-13T11:33:57.525Z,16.2
2022-10-13T11:35:14.629Z,15.2
2022-10-13T11:36:31.733Z,14.6
2022-10-13T11:37:48.837Z,13.9
2022-10-13T11:39:05.942Z,13.5
2022-10-13T11:40:22.062Z,12.9
2022-10-13T11:41:39.166Z,12.9
2022-10-13T11:42:56.271Z,13
2022-10-13T11:44:13.375Z,14.3
2022-10-13T11:45:30.479Z,14
2022-10-13T11:46:47.583Z,14.5
2022-10-13T11:48:04.688Z,14.5
2022-10-13T11:49:21.792Z,13.9
2022-10-13T11:50:38.896Z,14.3
2022-10-13T11:51:56.000Z,13.8
2022-10-13T11:53:13.104Z,14.3
2022-10-13T11:54:30.208Z,14
2022-10-13T11:55:47.312Z,14
2022-10-13T11:57:03.433Z,13.9
2022-10-13T11:58:20.537Z,13.5
2022-10-13T11:59:37.642Z,13.2
2022-10-13T12:00:54.746Z,13.7
2022-10-13T12:02:11.850Z,13.4
2022-10-13T12:03:28.954Z,13.1
2022-10-13T12:04:46.058Z,13.6
2022-10-13T12:06:03.163Z,13
2022-10-13T12:07:20.267Z,13.2
2022-10-13T12:08:37.371Z,13
2022-10-13T12:09:54.475Z,13.5
2022-10-13T12:11:11.579Z,11.4
2022-10-13T12:12:28.683Z,15.2
2022-10-13T12:13:44.803Z,14.6
2022-10-13T12:15:01.907Z,12.7
2022-10-13T12:16:19.011Z,14
2022-10-13T12:17:36.115Z,12.8
2022-10-13T12:18:53.221Z,13.4
2022-10-13T12:20:10.324Z,13.9
2022-10-13T12:21:27.429Z,13.3
2022-10-13T12:22:44.533Z,14.1
2022-10-13T12:24:01.636Z,15
2022-10-13T12:25:18.740Z,12.3
2022-10-13T12:26:35.844Z,13.5
2022-10-13T12:27:52.948Z,13
2022-10-13T12:29:10.052Z,12.2
2022-10-13T12:30:26.172Z,11.6
2022-10-13T12:31:43.276Z,14.9
2022-10-13T12:33:00.381Z,12.2
2022-10-13T12:34:17.485Z,12.3
2022-10-13T12:35:34.589Z,15.1
2022-10-13T12:36:51.693Z,14.9
2022-10-13T12:38:08.797Z,12.3
2022-10-13T12:39:25.901Z,11.7
2022-10-13T12:40:43.005Z,11.9
2022-10-13T12:42:00.109Z,12.1
2022-10-13T12:43:17.213Z,12.1
2022-10-13T12:44:34.317Z,12.3
2022-10-13T12:45:51.421Z,11.6
2022-10-13T12:47:07.541Z,11.8
2022-10-13T12:48:24.645Z,11.9
2022-10-13T12:49:41.749Z,12
2022-10-13T12:50:58.853Z,11.7
2022-10-13T12:52:15.957Z,11.5
2022-10-13T12:53:33.061Z,12.2
2022-10-13T12:54:50.166Z,11.6
2022-10-13T12:56:07.270Z,12
2022-10-13T12:57:24.374Z,10.3
2022-10-13T12:58:41.478Z,11.3
2022-10-13T12:59:58.582Z,12.4
2022-10-13T13:01:15.686Z,10.4
2022-10-13T13:02:32.790Z,13.7
2022-10-13T13:03:48.910Z,13.8
2022-10-13T13:05:06.014Z,11.4
2022-10-13T13:06:23.118Z,13.9
2022-10-13T13:07:40.222Z,12.2
2022-10-13T13:08:57.327Z,12.2
2022-10-13T13:10:14.431Z,13.6
2022-10-13T13:11:31.535Z,11.6
2022-10-13T13:12:48.639Z,12.1
2022-10-13T13:14:05.743Z,14.5
2022-10-13T13:15:22.847Z,13.7
2022-10-13T13:16:39.951Z,12
2022-10-13T13:17:57.055Z,12
2022-10-13T13:19:14.159Z,13.4
2022-10-13T13:20:30.280Z,11.7
2022-10-13T13:21:47.384Z,12
2022-10-13T13:23:04.488Z,12.9
2022-10-13T13:24:21.592Z,11.7
2022-10-13T13:25:38.696Z,12.8
2022-10-13T13:26:55.800Z,13.4
2022-10-13T13:28:12.905Z,14.6
2022-10-13T13:29:30.009Z,14.5
2022-10-13T13:30:47.113Z,15.9
2022-10-13T13:32:04.217Z,13.4
2022-10-13T13:33:21.321Z,13.2
2022-10-13T13:34:38.427Z,13.1
2022-10-13T13:35:55.531Z,15.2
2022-10-13T13:37:11.651Z,13.7
2022-10-13T13:38:28.755Z,14.1
2022-10-13T13:39:45.861Z,14.2
2022-10-13T13:41:02.965Z,14.1
2022-10-13T13:42:20.069Z,14.6
2022-10-13T13:43:37.173Z,13.7
2022-10-13T13:44:54.278Z,13.8
2022-10-13T13:46:11.382Z,14.5
2022-10-13T13:47:28.486Z,14.4
2022-10-13T13:48:45.590Z,13.6
2022-10-13T13:50:02.695Z,14
2022-10-13T13:51:19.799Z,14.4
2022-10-13T13:52:36.903Z,14
2022-10-13T13:53:53.024Z,13.8
2022-10-13T13:55:10.128Z,14
2022-10-13T13:56:27.232Z,13.4
2022-10-13T13:57:44.336Z,14.2
2022-10-13T13:59:01.441Z,14
2022-10-13T14:00:18.545Z,13.9
2022-10-13T14:01:35.649Z,13.8
2022-10-13T14:02:52.754Z,13.9
2022-10-13T14:04:09.858Z,13.8
2022-10-13T14:05:26.962Z,13.8
2022-10-13T14:06:44.066Z,14.4
2022-10-13T14:08:01.170Z,14.2
2022-10-13T14:09:18.274Z,14.3
2022-10-13T14:10:34.394Z,14.3
2022-10-13T14:11:51.498Z,13.9
2022-10-13T14:13:08.603Z,16.1
2022-10-13T14:14:25.707Z,14.2
2022-10-13T14:15:42.811Z,16.7
2022-10-13T14:16:59.915Z,15.5
2022-10-13T14:18:17.019Z,13.2
2022-10-13T14:19:34.124Z,15.6
2022-10-13T14:20:51.228Z,15.8
2022-10-13T14:22:08.332Z,14.2
2022-10-13T14:23:25.436Z,15.6
2022-10-13T14:24:42.541Z,14.8
2022-10-13T14:25:59.645Z,14.4
2022-10-13T14:27:15.765Z,14.9
2022-10-13T14:28:32.869Z,14.2
2022-10-13T14:29:49.974Z,14.2
2022-10-13T14:31:07.078Z,17.1
2022-10-13T14:32:24.182Z,14.2
2022-10-13T14:33:41.286Z,14.5
2022-10-13T14:34:58.391Z,15.3
2022-10-13T14:36:15.495Z,14.7
2022-10-13T14:37:32.599Z,14.1
2022-10-13T14:38:49.703Z,14.6
2022-10-13T14:40:06.807Z,14.5
2022-10-13T14:41:23.911Z,14.8
2022-10-13T14:42:41.015Z,14.9
2022-10-13T14:43:57.135Z,14.4
2022-10-13T14:45:14.239Z,16.7
2022-10-13T14:46:31.344Z,17.1
2022-10-13T14:47:48.448Z,14.1
2022-10-13T14:49:05.553Z,14.3
2022-10-13T14:50:22.657Z,13.9
2022-10-13T14:51:39.761Z,15.9
2022-10-13T14:52:56.866Z,14.7
2022-10-13T14:54:13.970Z,15.2
2022-10-13T14:55:31.074Z,15.2
2022-10-13T14:56:48.178Z,15.6
2022-10-13T14:58:05.282Z,14.9
2022-10-13T14:59:22.387Z,16.7
2022-10-13T15:00:38.507Z,14.1
2022-10-13T15:01:55.611Z,15.9
2022-10-13T15:03:12.715Z,16.2
2022-10-13T15:04:29.819Z,13.8
2022-10-13T15:05:46.924Z,15.8
2022-10-13T15:07:04.028Z,14.1
2022-10-13T15:08:21.132Z,13.5
2022-10-13T15:09:38.236Z,14.6
2022-10-13T15:10:55.340Z,14.4
2022-10-13T15:12:12.444Z,14.2
2022-10-13T15:13:29.548Z,15.5
2022-10-13T15:14:46.651Z,15
2022-10-13T15:16:03.755Z,15.1
2022-10-13T15:17:19.875Z,15.8
2022-10-13T15:18:36.979Z,15.3
2022-10-13T15:19:54.083Z,15
2022-10-13T15:21:11.187Z,17.2
2022-10-13T15:22:28.290Z,17.7
2022-10-13T15:23:45.394Z,15.2
2022-10-13T15:25:02.498Z,15.2
2022-10-13T15:26:19.602Z,17.4
2022-10-13T15:27:36.706Z,16.9
2022-10-13T15:28:53.809Z,14.4
2022-10-13T15:30:10.913Z,15
2022-10-13T15:31:28.017Z,16.9
2022-10-13T15:32:45.121Z,15.1
2022-10-13T15:34:01.241Z,15.9
2022-10-13T15:35:18.345Z,15
2022-10-13T15:36:35.449Z,14
2022-10-13T15:37:52.552Z,14.3
2022-10-13T15:39:09.656Z,15.2
2022-10-13T15:40:26.760Z,15.4
2022-10-13T15:41:43.864Z,15.1
2022-10-13T15:43:00.968Z,14.9
2022-10-13T15:44:18.072Z,15.8
2022-10-13T15:45:35.176Z,16.4
2022-10-13T15:46:52.280Z,15.8
2022-10-13T15:48:09.383Z,15.8
2022-10-13T15:49:26.487Z,15.9
2022-10-13T15:50:42.607Z,15.3
2022-10-13T15:51:59.710Z,15.6
2022-10-13T15:53:16.815Z,15.9
2022-10-13T15:54:33.918Z,15.9
2022-10-13T15:55:51.023Z,15.4
2022-10-13T15:57:08.127Z,15.2
2022-10-13T15:58:24.247Z,15.3
2022-10-13T15:59:41.351Z,15.7
2022-10-13T16:00:58.455Z,16.2
2022-10-13T16:02:15.559Z,15.5
2022-10-13T16:03:32.663Z,15.7
2022-10-13T16:04:49.767Z,15.5
2022-10-13T16:06:06.871Z,15.9
2022-10-13T16:07:23.974Z,15.6
2022-10-13T16:08:41.078Z,15.8
2022-10-13T16:09:58.182Z,16.9
2022-10-13T16:11:15.286Z,16.4
2022-10-13T16:12:32.390Z,16.2
2022-10-13T16:13:49.495Z,15.6
2022-10-13T16:15:05.615Z,15.5
2022-10-13T16:16:22.719Z,15.8
2022-10-13T16:17:39.823Z,16.1
2022-10-13T16:18:56.927Z,16.1
2022-10-13T16:20:14.031Z,16.4
2022-10-13T16:21:31.135Z,16.3
2022-10-13T16:22:48.239Z,15.6
2022-10-13T16:24:05.341Z,16.1
2022-10-13T16:25:22.445Z,17.3
2022-10-13T16:26:39.550Z,16.8
2022-10-13T16:27:56.654Z,16.7
2022-10-13T16:29:13.759Z,17.3
2022-10-13T16:30:30.863Z,17.4
2022-10-13T16:31:46.983Z,17
2022-10-13T16:33:04.088Z,17.6
2022-10-13T16:34:21.192Z,17.9
2022-10-13T16:35:38.296Z,19
2022-10-13T16:36:55.400Z,18.2
2022-10-13T16:38:12.505Z,18.9
2022-10-13T16:39:29.610Z,20.7
2022-10-13T16:40:46.714Z,18.7
2022-10-13T16:42:03.818Z,20.2
2022-10-13T16:43:20.923Z,20.4
2022-10-13T16:44:38.027Z,18.6
2022-10-13T16:45:55.131Z,20.6
2022-10-13T16:47:12.235Z,20.6
2022-10-13T16:48:28.355Z,19.3
2022-10-13T16:49:45.460Z,21.8
2022-10-13T16:51:02.565Z,21
2022-10-13T16:52:19.669Z,19.7
2022-10-13T16:53:36.774Z,21.5
2022-10-13T16:54:53.878Z,20
2022-10-13T16:56:10.983Z,19.4
2022-10-13T16:57:28.087Z,21.6
2022-10-13T16:58:45.191Z,20.1
2022-10-13T17:00:02.296Z,19.4
2022-10-13T17:01:19.400Z,21.4
2022-10-13T17:02:36.505Z,19.2
2022-10-13T17:03:53.609Z,19.1
2022-10-13T17:05:09.730Z,21
2022-10-13T17:06:26.834Z,19.2
2022-10-13T17:07:43.939Z,19.8
2022-10-13T17:09:01.043Z,19.5
2022-10-13T17:10:18.148Z,21.2
2022-10-13T17:11:35.252Z,21.9
2022-10-13T17:12:52.357Z,19.7